createdAt,value
2022-12-04T00:01:21.157Z,6.90
2022-12-04T00:03:48.118Z,6.00
2022-12-04T00:06:18.535Z,6.00
2022-12-04T00:08:45.491Z,6.90
2022-12-04T00:11:15.312Z,6.00
2022-12-04T00:13:43.589Z,6.10
2022-12-04T00:16:14.515Z,6.90
2022-12-04T00:18:41.488Z,6.40
2022-12-04T00:21:09.241Z,6.10
2022-12-04T00:23:36.146Z,6.10
2022-12-04T00:26:03.508Z,7.50
2022-12-04T00:28:30.283Z,6.00
2022-12-04T00:30:57.088Z,6.10
2022-12-04T00:33:23.916Z,6.10
2022-12-04T00:36:00.211Z,6.90
2022-12-04T00:38:27.016Z,6.10
2022-12-04T00:40:53.865Z,6.30
2022-12-04T00:43:20.988Z,6.10
2022-12-04T00:45:47.808Z,6.00
2022-12-04T00:48:14.690Z,5.40
2022-12-04T00:50:41.635Z,6.00
2022-12-04T00:53:08.399Z,6.10
2022-12-04T00:55:37.927Z,6.00
2022-12-04T00:58:04.900Z,6.10
2022-12-04T01:00:32.178Z,6.00
2022-12-04T01:02:58.984Z,6.00
2022-12-04T01:05:28.608Z,6.00
2022-12-04T01:07:55.470Z,6.00
2022-12-04T01:10:22.340Z,6.00
2022-12-04T01:12:49.895Z,6.00
2022-12-04T01:15:16.943Z,6.00
2022-12-04T01:17:45.452Z,6.30
2022-12-04T01:20:13.085Z,6.00
2022-12-04T01:22:40.202Z,6.00
2022-12-04T01:25:07.383Z,6.40
2022-12-04T01:27:34.244Z,6.00
2022-12-04T01:30:01.112Z,7.20
2022-12-04T01:32:28.694Z,6.00
2022-12-04T01:34:55.597Z,6.50
2022-12-04T01:37:22.319Z,5.90
2022-12-04T01:39:49.161Z,6.00
2022-12-04T01:42:15.904Z,6.00
2022-12-04T01:44:43.872Z,6.00
2022-12-04T01:47:10.824Z,6.00
2022-12-04T01:49:47.519Z,6.00
2022-12-04T01:52:16.371Z,6.00
2022-12-04T01:54:45.108Z,6.00
2022-12-04T01:57:11.861Z,6.00
2022-12-04T01:59:43.435Z,6.20
2022-12-04T02:02:11.399Z,6.00
2022-12-04T02:04:38.884Z,6.40
2022-12-04T02:07:05.743Z,6.00
2022-12-04T02:09:34.741Z,6.00
2022-12-04T02:12:04.026Z,6.00
2022-12-04T02:14:40.149Z,6.00
2022-12-04T02:17:23.398Z,6.00
2022-12-04T02:19:50.270Z,5.90
2022-12-04T02:22:45.770Z,5.90
2022-12-04T02:25:31.248Z,5.90
2022-12-04T02:27:58.047Z,5.90
2022-12-04T02:30:25.030Z,6.00
2022-12-04T02:32:57.309Z,5.90
2022-12-04T02:35:28.449Z,6.60
2022-12-04T02:38:21.855Z,5.90
2022-12-04T02:40:54.905Z,5.90
2022-12-04T02:43:25.342Z,5.90
2022-12-04T02:45:56.399Z,5.60
2022-12-04T02:48:23.209Z,5.90
2022-12-04T02:50:51.200Z,5.90
2022-12-04T02:53:19.125Z,5.90
2022-12-04T02:55:51.233Z,6.30
2022-12-04T02:58:29.548Z,5.60
2022-12-04T03:00:56.455Z,5.80
2022-12-04T03:03:23.836Z,5.90
2022-12-04T03:05:53.867Z,5.90
2022-12-04T03:08:21.973Z,5.80
2022-12-04T03:10:53.588Z,5.80
2022-12-04T03:13:21.348Z,5.80
2022-12-04T03:15:49.414Z,6.10
2022-12-04T03:18:37.001Z,5.80
2022-12-04T03:21:04.713Z,5.80
2022-12-04T03:23:32.902Z,5.80
2022-12-04T03:26:04.832Z,5.80
2022-12-04T03:28:34.057Z,5.70
2022-12-04T03:31:04.589Z,5.80
2022-12-04T03:33:36.539Z,6.60
2022-12-04T03:36:06.253Z,5.70
2022-12-04T03:38:44.720Z,4.90
2022-12-04T03:41:17.904Z,5.70
2022-12-04T03:44:17.580Z,5.70
2022-12-04T03:46:56.697Z,5.70
2022-12-04T03:49:29.847Z,5.70
2022-12-04T03:52:04.476Z,5.70
2022-12-04T03:54:35.520Z,5.70
2022-12-04T03:57:03.641Z,5.70
2022-12-04T03:59:31.288Z,5.70
2022-12-04T04:01:58.209Z,5.70
2022-12-04T04:04:33.420Z,5.70
2022-12-04T04:07:05.558Z,5.60
2022-12-04T04:09:34.382Z,5.60
2022-12-04T04:12:08.875Z,5.60
2022-12-04T04:15:23.733Z,5.60
2022-12-04T04:18:09.017Z,5.20
2022-12-04T04:20:58.941Z,5.60
2022-12-04T04:23:44.394Z,5.60
2022-12-04T04:26:11.535Z,5.50
2022-12-04T04:28:41.291Z,6.30
2022-12-04T04:31:17.398Z,5.60
2022-12-04T04:33:47.598Z,5.50
2022-12-04T04:36:23.553Z,6.40
2022-12-04T04:39:01.153Z,5.50
2022-12-04T04:41:36.581Z,5.50
2022-12-04T04:44:12.470Z,5.60
2022-12-04T04:46:40.515Z,5.60
2022-12-04T04:49:08.291Z,5.50
2022-12-04T04:51:35.150Z,5.50
2022-12-04T04:54:02.540Z,6.00
2022-12-04T04:56:29.312Z,5.50
2022-12-04T04:58:56.187Z,5.90
2022-12-04T05:01:23.736Z,5.50
2022-12-04T05:03:50.545Z,5.50
2022-12-04T05:06:17.403Z,5.60
2022-12-04T05:08:44.435Z,6.50
2022-12-04T05:11:11.986Z,5.60
2022-12-04T05:13:38.717Z,4.70
2022-12-04T05:16:06.104Z,5.60
2022-12-04T05:18:33.376Z,5.60
2022-12-04T05:21:00.217Z,5.60
2022-12-04T05:23:26.916Z,5.60
2022-12-04T05:25:59.175Z,5.50
2022-12-04T05:28:25.905Z,6.40
2022-12-04T05:30:56.443Z,5.50
2022-12-04T05:33:23.188Z,5.50
2022-12-04T05:36:06.286Z,6.60
2022-12-04T05:38:33.000Z,5.70
2022-12-04T05:41:00.490Z,5.50
2022-12-04T05:43:27.249Z,5.50
2022-12-04T05:45:54.017Z,5.50
2022-12-04T05:48:20.757Z,5.60
2022-12-04T05:50:47.701Z,5.50
2022-12-04T05:53:14.433Z,5.50
2022-12-04T05:55:41.169Z,6.30
2022-12-04T05:58:07.897Z,5.90
2022-12-04T06:00:34.747Z,5.50
2022-12-04T06:03:01.640Z,5.60
2022-12-04T06:05:28.403Z,5.60
2022-12-04T06:07:55.333Z,5.50
2022-12-04T06:10:22.181Z,5.60
2022-12-04T06:12:48.956Z,5.60
2022-12-04T06:15:15.795Z,6.00
2022-12-04T06:17:42.632Z,5.20
2022-12-04T06:20:11.776Z,6.60
2022-12-04T06:22:38.917Z,5.60
2022-12-04T06:25:05.904Z,5.90
2022-12-04T06:27:32.746Z,5.60
2022-12-04T06:29:59.715Z,5.60
2022-12-04T06:32:26.526Z,5.80
2022-12-04T06:34:53.804Z,6.90
2022-12-04T06:37:21.022Z,5.60
2022-12-04T06:39:47.980Z,5.60
2022-12-04T06:42:14.787Z,5.60
2022-12-04T06:44:41.496Z,5.70
2022-12-04T06:47:08.522Z,5.70
2022-12-04T06:49:36.281Z,5.70
2022-12-04T06:52:03.369Z,5.70
2022-12-04T06:54:30.240Z,5.70
2022-12-04T06:56:56.987Z,5.30
2022-12-04T06:59:23.936Z,5.60
2022-12-04T07:01:50.850Z,6.10
2022-12-04T07:04:17.691Z,6.00
2022-12-04T07:06:44.415Z,5.80
2022-12-04T07:09:12.140Z,6.40
2022-12-04T07:11:39.323Z,5.70
2022-12-04T07:14:06.069Z,6.30
2022-12-04T07:16:38.631Z,5.70
2022-12-04T07:19:06.956Z,5.70
2022-12-04T07:21:37.130Z,5.40
2022-12-04T07:24:04.297Z,5.60
2022-12-04T07:26:31.166Z,5.60
2022-12-04T07:28:58.169Z,5.70
2022-12-04T07:31:25.142Z,5.60
2022-12-04T07:33:54.052Z,5.70
2022-12-04T07:36:20.979Z,5.60
2022-12-04T07:38:47.772Z,5.60
2022-12-04T07:41:14.561Z,6.40
2022-12-04T07:43:41.559Z,5.70
2022-12-04T07:46:12.693Z,6.00
2022-12-04T07:48:39.589Z,5.60
2022-12-04T07:51:07.152Z,5.60
2022-12-04T07:53:33.981Z,5.60
2022-12-04T07:56:00.728Z,5.60
2022-12-04T07:58:27.705Z,5.80
2022-12-04T08:00:54.622Z,5.60
2022-12-04T08:03:21.520Z,5.60
2022-12-04T08:05:48.464Z,5.60
2022-12-04T08:08:15.254Z,5.60
2022-12-04T08:10:41.967Z,5.90
2022-12-04T08:13:08.641Z,5.60
2022-12-04T08:15:35.391Z,5.60
2022-12-04T08:18:02.124Z,5.70
2022-12-04T08:20:29.329Z,5.70
2022-12-04T08:22:56.112Z,5.60
2022-12-04T08:25:22.934Z,5.70
2022-12-04T08:27:50.072Z,5.60
2022-12-04T08:30:17.098Z,5.60
2022-12-04T08:32:43.797Z,5.60
2022-12-04T08:35:10.514Z,6.60
2022-12-04T08:37:40.579Z,6.60
2022-12-04T08:40:07.777Z,5.70
2022-12-04T08:42:34.531Z,5.70
2022-12-04T08:45:01.212Z,5.60
2022-12-04T08:47:27.983Z,5.70
2022-12-04T08:49:55.059Z,6.90
2022-12-04T08:52:22.013Z,5.70
2022-12-04T08:54:50.185Z,5.70
2022-12-04T08:57:17.037Z,5.70
2022-12-04T08:59:43.751Z,5.80
2022-12-04T09:02:11.134Z,6.40
2022-12-04T09:04:40.907Z,6.30
2022-12-04T09:07:07.727Z,5.70
2022-12-04T09:09:35.022Z,6.60
2022-12-04T09:12:01.846Z,5.40
2022-12-04T09:14:28.788Z,6.20
2022-12-04T09:16:55.620Z,5.80
2022-12-04T09:19:22.482Z,5.70
2022-12-04T09:21:49.242Z,6.30
2022-12-04T09:24:17.895Z,5.60
2022-12-04T09:26:44.773Z,5.80
2022-12-04T09:29:12.168Z,5.80
2022-12-04T09:31:39.285Z,5.80
2022-12-04T09:34:06.290Z,5.90
2022-12-04T09:36:33.129Z,5.80
2022-12-04T09:39:00.034Z,5.90
2022-12-04T09:41:45.589Z,6.60
2022-12-04T09:44:31.527Z,5.80
2022-12-04T09:47:05.431Z,5.80
2022-12-04T09:49:37.062Z,5.90
2022-12-04T09:52:05.903Z,5.90
2022-12-04T09:54:38.724Z,5.90
2022-12-04T09:57:41.019Z,5.90
2022-12-04T10:00:08.084Z,5.80
2022-12-04T10:02:38.675Z,5.90
2022-12-04T10:05:07.830Z,5.90
2022-12-04T10:07:43.699Z,5.90
2022-12-04T10:10:18.208Z,5.90
2022-12-04T10:12:57.759Z,5.90
2022-12-04T10:15:40.538Z,5.90
2022-12-04T10:18:16.543Z,5.90
2022-12-04T10:20:46.749Z,5.90
2022-12-04T10:23:20.092Z,5.90
2022-12-04T10:26:13.365Z,5.90
2022-12-04T10:31:35.584Z,6.50
2022-12-04T10:34:04.188Z,6.00
2022-12-04T10:36:34.344Z,6.00
2022-12-04T10:39:06.710Z,6.00
2022-12-04T10:41:52.045Z,6.00
2022-12-04T10:44:19.543Z,6.10
2022-12-04T10:46:47.032Z,6.10
2022-12-04T10:49:18.047Z,6.10
2022-12-04T10:51:44.954Z,6.70
2022-12-04T10:54:16.864Z,6.30
2022-12-04T10:57:06.550Z,6.20
2022-12-04T10:59:33.383Z,6.20
2022-12-04T11:02:06.369Z,6.50
2022-12-04T11:04:34.054Z,6.00
2022-12-04T11:07:04.801Z,6.30
2022-12-04T11:09:31.599Z,6.30
2022-12-04T11:12:08.538Z,6.80
2022-12-04T11:14:35.344Z,6.30
2022-12-04T11:17:05.772Z,6.40
2022-12-04T11:19:33.829Z,6.40
2022-12-04T11:22:04.284Z,6.40
2022-12-04T11:24:34.828Z,6.50
2022-12-04T11:27:05.241Z,6.40
2022-12-04T11:29:41.800Z,6.40
2022-12-04T11:32:14.526Z,6.40
2022-12-04T11:34:41.303Z,6.50
2022-12-04T11:37:17.908Z,6.50
2022-12-04T11:39:44.609Z,6.90
2022-12-04T11:42:19.876Z,6.50
2022-12-04T11:44:52.706Z,6.50
2022-12-04T11:47:20.163Z,6.60
2022-12-04T11:49:57.885Z,6.50
2022-12-04T11:52:25.151Z,6.70
2022-12-04T11:54:55.003Z,6.60
2022-12-04T11:57:21.720Z,6.60
2022-12-04T12:00:07.612Z,6.60
2022-12-04T12:02:49.912Z,6.70
2022-12-04T12:05:49.482Z,6.70
2022-12-04T12:08:22.531Z,7.50
2022-12-04T12:11:05.298Z,6.70
2022-12-04T12:13:38.071Z,6.70
2022-12-04T12:16:08.133Z,6.70
2022-12-04T12:18:44.199Z,6.70
2022-12-04T12:21:17.238Z,6.80
2022-12-04T12:23:56.080Z,6.70
2022-12-04T12:26:23.780Z,6.80
2022-12-04T12:28:53.535Z,6.80
2022-12-04T12:31:39.233Z,6.80
2022-12-04T12:34:08.696Z,6.80
2022-12-04T12:36:40.001Z,6.70
2022-12-04T12:39:19.187Z,6.80
2022-12-04T12:41:48.690Z,6.90
2022-12-04T12:44:20.661Z,6.90
2022-12-04T12:46:51.809Z,6.90
2022-12-04T12:49:21.006Z,6.80
2022-12-04T12:51:52.617Z,6.90
2022-12-04T12:54:38.332Z,6.90
2022-12-04T12:57:25.484Z,6.90
2022-12-04T12:59:53.111Z,6.90
2022-12-04T13:02:30.426Z,6.80
2022-12-04T13:04:58.056Z,6.80
2022-12-04T13:07:29.686Z,6.80
2022-12-04T13:10:04.543Z,6.80
2022-12-04T13:12:33.417Z,6.80
2022-12-04T13:15:00.397Z,6.80
2022-12-04T13:17:34.221Z,6.80
2022-12-04T13:20:06.858Z,6.70
2022-12-04T13:22:46.097Z,6.70
2022-12-04T13:25:25.266Z,6.70
2022-12-04T13:27:56.075Z,7.80
2022-12-04T13:30:23.500Z,6.50
2022-12-04T13:33:09.183Z,6.60
2022-12-04T13:35:51.262Z,6.50
2022-12-04T13:38:28.594Z,6.70
2022-12-04T13:40:59.075Z,6.70
2022-12-04T13:43:27.766Z,6.70
2022-12-04T13:45:55.412Z,6.80
2022-12-04T13:48:31.985Z,6.80
2022-12-04T13:51:07.066Z,6.70
2022-12-04T13:53:35.277Z,6.70
2022-12-04T13:56:07.677Z,6.60
2022-12-04T13:58:36.417Z,7.00
2022-12-04T14:01:13.311Z,6.70
2022-12-04T14:03:55.599Z,6.70
2022-12-04T14:06:26.334Z,6.70
2022-12-04T14:08:57.399Z,6.70
2022-12-04T14:11:24.155Z,6.70
2022-12-04T14:13:51.447Z,6.90
2022-12-04T14:16:19.576Z,6.70
2022-12-04T14:18:50.200Z,6.70
2022-12-04T14:21:16.964Z,6.70
2022-12-04T14:23:43.907Z,6.70
2022-12-04T14:27:09.977Z,6.70
2022-12-04T14:29:33.029Z,6.70
2022-12-04T14:32:01.052Z,6.70
2022-12-04T14:34:29.619Z,6.50
2022-12-04T14:36:56.969Z,6.70
2022-12-04T14:39:27.992Z,6.60
2022-12-04T14:42:03.549Z,6.70
2022-12-04T14:44:30.385Z,6.60
2022-12-04T14:47:02.963Z,6.70
2022-12-04T14:49:50.080Z,6.60
2022-12-04T14:52:17.502Z,6.60
2022-12-04T14:54:57.083Z,6.60
2022-12-04T14:57:27.220Z,6.50
2022-12-04T14:59:54.039Z,6.60
2022-12-04T15:02:39.826Z,6.50
2022-12-04T15:05:16.204Z,6.60
2022-12-04T15:07:49.681Z,6.60
2022-12-04T15:10:39.776Z,6.50
2022-12-04T15:13:06.636Z,6.40
2022-12-04T15:15:33.647Z,6.60
2022-12-04T15:18:00.516Z,6.60
2022-12-04T15:20:28.010Z,6.50
2022-12-04T15:22:57.508Z,6.50
2022-12-04T15:25:25.491Z,7.00
2022-12-04T15:27:53.019Z,6.40
2022-12-04T15:30:21.218Z,6.10
2022-12-04T15:32:48.656Z,6.40
2022-12-04T15:35:20.136Z,6.90
2022-12-04T15:37:46.882Z,6.50
2022-12-04T15:40:20.651Z,7.20
2022-12-04T15:42:47.583Z,6.40
2022-12-04T15:45:14.434Z,6.40
2022-12-04T15:47:41.305Z,6.40
2022-12-04T15:50:21.239Z,6.30
2022-12-04T15:53:03.318Z,7.00
2022-12-04T15:55:31.096Z,6.30
2022-12-04T15:57:59.214Z,6.30
2022-12-04T16:00:33.496Z,6.30
2022-12-04T16:03:00.427Z,6.10
2022-12-04T16:05:28.958Z,6.30
2022-12-04T16:07:57.519Z,6.20
2022-12-04T16:10:29.038Z,6.30
2022-12-04T16:12:56.936Z,6.20
2022-12-04T16:15:24.221Z,6.20
2022-12-04T16:17:51.097Z,6.20
2022-12-04T16:20:18.179Z,6.20
2022-12-04T16:22:45.204Z,6.70
2022-12-04T16:25:12.166Z,6.10
2022-12-04T16:27:41.148Z,6.20
2022-12-04T16:30:11.477Z,6.20
2022-12-04T16:32:40.291Z,6.40
2022-12-04T16:35:07.292Z,6.30
2022-12-04T16:37:34.316Z,6.10
2022-12-04T16:40:06.463Z,6.30
2022-12-04T16:42:35.021Z,7.40
2022-12-04T16:45:01.959Z,6.90
2022-12-04T16:47:28.888Z,6.00
2022-12-04T16:49:56.069Z,6.80
2022-12-04T16:52:24.544Z,5.90
2022-12-04T16:54:51.370Z,5.00
2022-12-04T16:57:19.710Z,7.50
2022-12-04T16:59:47.681Z,6.00
2022-12-04T17:02:16.073Z,5.00
2022-12-04T17:04:43.099Z,6.10
2022-12-04T17:07:13.933Z,5.90
2022-12-04T17:09:43.335Z,5.90
2022-12-04T17:12:10.123Z,7.30
2022-12-04T17:14:39.373Z,5.80
2022-12-04T17:17:06.257Z,6.60
2022-12-04T17:19:33.039Z,5.80
2022-12-04T17:22:01.403Z,7.00
2022-12-04T17:24:28.277Z,5.60
2022-12-04T17:26:58.404Z,5.80
2022-12-04T17:29:25.252Z,5.70
2022-12-04T17:31:52.099Z,5.70
2022-12-04T17:34:19.110Z,5.70
2022-12-04T17:36:45.859Z,5.80
2022-12-04T17:39:14.931Z,5.60
2022-12-04T17:41:41.913Z,5.70
2022-12-04T17:44:08.874Z,5.80
2022-12-04T17:46:35.845Z,5.70
2022-12-04T17:49:07.279Z,5.80
2022-12-04T17:51:35.910Z,5.60
2022-12-04T17:54:02.935Z,6.70
2022-12-04T17:56:29.835Z,6.80
2022-12-04T17:58:56.780Z,5.70
2022-12-04T18:01:24.691Z,5.70
2022-12-04T18:03:51.862Z,5.70
2022-12-04T18:06:28.534Z,6.00
2022-12-04T18:08:55.458Z,5.60
2022-12-04T18:11:23.954Z,5.10
2022-12-04T18:13:56.354Z,5.60
2022-12-04T18:16:25.685Z,5.50
2022-12-04T18:18:55.869Z,6.00
2022-12-04T18:21:25.868Z,5.60
2022-12-04T18:23:55.588Z,5.50
2022-12-04T18:26:23.403Z,6.10
2022-12-04T18:28:50.406Z,5.50
2022-12-04T18:31:18.017Z,4.90
2022-12-04T18:33:45.067Z,5.50
2022-12-04T18:36:12.973Z,5.60
2022-12-04T18:38:39.716Z,5.70
2022-12-04T18:41:06.869Z,5.50
2022-12-04T18:43:34.422Z,5.50
2022-12-04T18:46:07.305Z,5.50
2022-12-04T18:48:34.848Z,5.50
2022-12-04T18:51:01.680Z,5.70
2022-12-04T18:53:28.452Z,5.50
2022-12-04T18:55:55.294Z,5.90
2022-12-04T18:58:23.102Z,5.50
2022-12-04T19:00:53.517Z,5.50
2022-12-04T19:03:20.453Z,5.40
2022-12-04T19:05:49.724Z,5.40
2022-12-04T19:08:16.759Z,5.40
2022-12-04T19:10:43.584Z,5.40
2022-12-04T19:13:10.399Z,4.70
2022-12-04T19:15:41.617Z,6.20
2022-12-04T19:18:08.411Z,5.40
2022-12-04T19:20:35.185Z,5.40
2022-12-04T19:23:01.863Z,6.60
2022-12-04T19:25:28.560Z,5.40
2022-12-04T19:27:55.558Z,5.40
2022-12-04T19:30:22.389Z,5.60
2022-12-04T19:32:49.286Z,5.40
2022-12-04T19:35:16.272Z,5.40
2022-12-04T19:37:52.413Z,5.40
2022-12-04T19:40:20.514Z,5.40
2022-12-04T19:42:47.425Z,5.40
2022-12-04T19:45:14.411Z,6.30
2022-12-04T19:47:41.330Z,5.40
2022-12-04T19:50:08.388Z,5.40
2022-12-04T19:52:35.528Z,5.50
2022-12-04T19:55:02.448Z,5.40
2022-12-04T19:57:31.581Z,5.40
2022-12-04T19:59:58.674Z,5.50
2022-12-04T20:02:27.893Z,5.30
2022-12-04T20:04:55.015Z,5.40
2022-12-04T20:07:22.012Z,5.30
2022-12-04T20:09:52.438Z,5.90
2022-12-04T20:12:19.788Z,5.90
2022-12-04T20:14:48.807Z,5.30
2022-12-04T20:17:21.054Z,5.40
2022-12-04T20:19:48.281Z,5.20
2022-12-04T20:22:15.209Z,5.20
2022-12-04T20:24:45.229Z,4.90
2022-12-04T20:27:12.201Z,5.10
2022-12-04T20:29:40.163Z,5.60
2022-12-04T20:32:06.946Z,5.10
2022-12-04T20:34:37.542Z,5.00
2022-12-04T20:37:07.070Z,5.10
2022-12-04T20:39:35.474Z,5.40
2022-12-04T20:42:02.805Z,5.10
2022-12-04T20:44:29.639Z,5.10
2022-12-04T20:46:56.549Z,5.60
2022-12-04T20:49:23.601Z,5.70
2022-12-04T20:51:51.002Z,5.20
2022-12-04T20:54:18.813Z,5.10
2022-12-04T20:56:46.093Z,5.00
2022-12-04T20:59:15.008Z,5.10
2022-12-04T21:01:43.238Z,5.40
2022-12-04T21:04:17.926Z,5.00
2022-12-04T21:06:45.075Z,5.00
2022-12-04T21:09:15.160Z,6.30
2022-12-04T21:11:51.256Z,5.70
2022-12-04T21:14:47.181Z,5.00
2022-12-04T21:17:18.542Z,6.50
2022-12-04T21:19:46.267Z,5.00
2022-12-04T21:22:13.440Z,5.00
2022-12-04T21:24:42.726Z,5.00
2022-12-04T21:27:09.956Z,5.00
2022-12-04T21:29:37.591Z,5.00
2022-12-04T21:32:04.794Z,5.00
2022-12-04T21:34:31.847Z,5.00
2022-12-04T21:37:01.068Z,5.00
2022-12-04T21:39:30.429Z,5.00
2022-12-04T21:42:22.532Z,4.90
2022-12-04T21:44:52.422Z,5.30
2022-12-04T21:47:24.280Z,5.00
2022-12-04T21:50:18.592Z,5.00
2022-12-04T21:52:45.509Z,5.00
2022-12-04T21:55:12.346Z,5.60
2022-12-04T21:57:41.624Z,4.50
2022-12-04T22:00:11.231Z,5.00
2022-12-04T22:02:40.244Z,5.10
2022-12-04T22:05:07.410Z,5.20
2022-12-04T22:07:34.343Z,5.00
2022-12-04T22:10:10.050Z,5.00
2022-12-04T22:12:52.865Z,6.00
2022-12-04T22:15:19.707Z,5.00
2022-12-04T22:17:46.683Z,5.00
2022-12-04T22:20:13.504Z,5.00
2022-12-04T22:22:52.117Z,5.00
2022-12-04T22:25:22.075Z,5.20
2022-12-04T22:28:31.719Z,5.80
2022-12-04T22:30:55.740Z,5.00
2022-12-04T22:33:22.637Z,6.00
2022-12-04T22:35:49.579Z,5.00
2022-12-04T22:38:16.580Z,4.90
2022-12-04T22:40:50.016Z,5.00
2022-12-04T22:43:47.253Z,5.40
2022-12-04T22:46:26.124Z,5.40
2022-12-04T22:49:04.300Z,5.10
2022-12-04T22:51:31.147Z,5.00
2022-12-04T22:54:00.045Z,5.20
2022-12-04T22:59:12.879Z,6.30
2022-12-04T23:01:39.900Z,5.10
2022-12-04T23:04:15.308Z,5.20
2022-12-04T23:06:50.900Z,5.10
2022-12-04T23:09:36.516Z,5.10
2022-12-04T23:12:10.077Z,5.30
2022-12-04T23:14:37.253Z,5.10
2022-12-04T23:17:11.629Z,5.40
2022-12-04T23:19:43.162Z,5.70
2022-12-04T23:22:12.480Z,5.50
2022-12-04T23:24:48.669Z,5.40
2022-12-04T23:27:15.505Z,5.20
2022-12-04T23:29:53.055Z,5.00
2022-12-04T23:32:20.569Z,5.00
2022-12-04T23:34:47.293Z,5.10
2022-12-04T23:37:14.097Z,5.00
2022-12-04T23:39:41.009Z,5.70
2022-12-04T23:42:07.940Z,5.00
2022-12-04T23:44:34.701Z,5.30
2022-12-04T23:47:01.560Z,5.20
2022-12-04T23:49:28.361Z,5.90
2022-12-04T23:51:55.202Z,5.00
2022-12-04T23:54:22.113Z,5.00
2022-12-04T23:56:48.928Z,5.00
2022-12-04T23:59:15.831Z,5.00
